createdAt,value
2022-07-29T00:01:42.601Z,1.42
2022-07-29T00:05:24.686Z,1.10
2022-07-29T00:09:06.780Z,0.80
2022-07-29T00:12:48.800Z,1.10
2022-07-29T00:16:30.934Z,1.20
2022-07-29T00:20:13.048Z,1.00
2022-07-29T00:23:54.975Z,1.15
2022-07-29T00:27:37.887Z,0.90
2022-07-29T00:31:19.931Z,1.20
2022-07-29T00:35:20.371Z,1.10
2022-07-29T00:39:02.358Z,0.90
2022-07-29T00:42:51.797Z,0.98
2022-07-29T00:46:33.769Z,0.90
2022-07-29T00:50:16.021Z,1.00
2022-07-29T00:53:58.062Z,1.00
2022-07-29T00:57:41.308Z,1.02
2022-07-29T01:01:23.359Z,1.15
2022-07-29T01:05:07.464Z,0.98
2022-07-29T01:08:50.474Z,0.93
2022-07-29T01:12:34.647Z,1.05
2022-07-29T01:16:45.172Z,1.20
2022-07-29T01:20:56.826Z,1.23
2022-07-29T01:24:52.980Z,1.00
2022-07-29T01:29:09.588Z,1.15
2022-07-29T01:33:02.651Z,1.15
2022-07-29T01:36:52.751Z,1.00
2022-07-29T01:40:45.271Z,1.10
2022-07-29T01:44:38.794Z,1.10
2022-07-29T01:48:28.734Z,1.05
2022-07-29T01:52:20.032Z,1.13
2022-07-29T01:56:04.077Z,1.27
2022-07-29T01:59:48.584Z,1.13
2022-07-29T02:03:33.527Z,1.02
2022-07-29T02:07:20.323Z,1.00
2022-07-29T02:14:49.162Z,1.10
2022-07-29T02:18:32.211Z,1.20
2022-07-29T02:22:15.452Z,1.13
2022-07-29T02:26:00.152Z,1.02
2022-07-29T02:29:42.697Z,1.20
2022-07-29T02:33:25.409Z,1.05
2022-07-29T02:37:10.462Z,1.20
2022-07-29T02:40:54.645Z,1.17
2022-07-29T02:44:37.224Z,1.30
2022-07-29T02:48:21.111Z,1.15
2022-07-29T02:52:07.927Z,1.10
2022-07-29T02:59:45.970Z,1.25
2022-07-29T03:03:36.954Z,1.23
2022-07-29T03:07:21.988Z,1.20
2022-07-29T03:11:05.807Z,1.10
2022-07-29T03:14:48.101Z,1.00
2022-07-29T03:18:31.695Z,1.60
2022-07-29T03:22:14.747Z,1.23
2022-07-29T03:25:57.442Z,1.40
2022-07-29T03:29:39.388Z,1.20
2022-07-29T03:33:21.818Z,1.40
2022-07-29T03:37:04.383Z,1.40
2022-07-29T03:40:54.035Z,1.20
2022-07-29T03:44:38.634Z,1.40
2022-07-29T03:48:24.846Z,1.23
2022-07-29T03:52:07.374Z,1.38
2022-07-29T03:55:55.784Z,1.40
2022-07-29T03:59:39.000Z,1.27
2022-07-29T04:03:21.564Z,1.30
2022-07-29T04:07:04.758Z,1.27
2022-07-29T04:10:46.802Z,1.38
2022-07-29T04:14:28.792Z,1.40
2022-07-29T04:18:10.845Z,1.13
2022-07-29T04:21:53.004Z,1.30
2022-07-29T04:25:37.781Z,1.27
2022-07-29T04:29:19.763Z,1.50
2022-07-29T04:33:03.339Z,1.50
2022-07-29T04:36:45.341Z,1.50
2022-07-29T04:40:27.294Z,1.40
2022-07-29T04:44:09.246Z,1.60
2022-07-29T04:47:51.711Z,1.38
2022-07-29T04:51:33.638Z,1.55
2022-07-29T04:55:15.590Z,1.13
2022-07-29T04:58:57.707Z,1.52
2022-07-29T05:02:39.756Z,1.40
2022-07-29T05:06:21.779Z,1.40
2022-07-29T05:10:04.216Z,2.10
2022-07-29T05:13:47.036Z,1.60
2022-07-29T05:17:29.226Z,1.50
2022-07-29T05:21:11.326Z,1.63
2022-07-29T05:24:53.274Z,1.90
2022-07-29T05:28:36.323Z,1.80
2022-07-29T05:32:19.133Z,1.70
2022-07-29T05:36:01.311Z,1.60
2022-07-29T05:39:48.484Z,1.70
2022-07-29T05:43:32.360Z,1.60
2022-07-29T05:47:14.700Z,1.40
2022-07-29T05:50:56.707Z,1.33
2022-07-29T05:54:38.757Z,1.42
2022-07-29T05:58:21.367Z,1.48
2022-07-29T06:02:03.362Z,1.63
2022-07-29T06:05:45.540Z,1.50
2022-07-29T06:09:27.454Z,1.50
2022-07-29T06:13:09.404Z,1.60
2022-07-29T06:16:51.713Z,1.60
2022-07-29T06:20:33.681Z,1.40
2022-07-29T06:24:16.937Z,1.30
2022-07-29T06:27:59.486Z,1.30
2022-07-29T06:31:41.462Z,1.20
2022-07-29T06:35:42.043Z,1.20
2022-07-29T06:39:24.926Z,1.20
2022-07-29T06:43:07.172Z,1.30
2022-07-29T06:46:51.079Z,1.30
2022-07-29T06:50:33.162Z,1.25
2022-07-29T06:54:15.358Z,1.10
2022-07-29T06:57:57.438Z,1.30
2022-07-29T07:01:43.973Z,1.40
2022-07-29T07:09:08.024Z,1.05
2022-07-29T07:12:50.037Z,0.90
2022-07-29T07:16:33.043Z,1.05
2022-07-29T07:20:15.319Z,0.98
2022-07-29T07:23:57.266Z,0.90
2022-07-29T07:27:39.586Z,0.88
2022-07-29T07:31:21.690Z,0.70
2022-07-29T07:35:07.010Z,0.90
2022-07-29T07:38:49.074Z,0.80
2022-07-29T07:42:31.077Z,0.90
2022-07-29T07:46:13.159Z,0.70
2022-07-29T07:49:55.200Z,0.98
2022-07-29T07:53:37.219Z,0.70
2022-07-29T07:57:19.201Z,0.88
2022-07-29T08:01:01.159Z,0.80
2022-07-29T08:04:43.192Z,0.70
2022-07-29T08:08:25.170Z,0.85
2022-07-29T08:12:07.330Z,0.80
2022-07-29T08:15:58.451Z,0.90
2022-07-29T08:19:40.883Z,0.90
2022-07-29T08:23:24.093Z,0.68
2022-07-29T08:27:26.972Z,0.73
2022-07-29T08:31:09.668Z,0.65
2022-07-29T08:34:51.647Z,0.77
2022-07-29T08:38:33.797Z,0.80
2022-07-29T08:42:17.733Z,0.60
2022-07-29T08:45:59.716Z,0.50
2022-07-29T08:49:41.918Z,0.65
2022-07-29T08:53:27.430Z,0.55
2022-07-29T08:57:10.278Z,0.60
2022-07-29T09:00:57.993Z,0.63
2022-07-29T09:04:40.863Z,0.77
2022-07-29T09:08:24.029Z,0.68
2022-07-29T09:12:07.466Z,0.77
2022-07-29T09:15:49.775Z,0.50
2022-07-29T09:19:35.898Z,0.70
2022-07-29T09:23:24.334Z,0.70
2022-07-29T09:27:24.565Z,0.40
2022-07-29T09:31:08.039Z,0.47
2022-07-29T09:34:50.105Z,0.75
2022-07-29T09:38:32.592Z,0.95
2022-07-29T09:42:16.020Z,0.65
2022-07-29T09:46:14.751Z,0.57
2022-07-29T09:49:59.369Z,0.57
2022-07-29T09:53:42.205Z,0.40
2022-07-29T09:57:31.077Z,0.60
2022-07-29T10:01:13.762Z,0.38
2022-07-29T10:04:56.332Z,0.30
2022-07-29T10:08:39.054Z,0.50
2022-07-29T10:12:21.067Z,0.32
2022-07-29T10:16:03.441Z,0.40
2022-07-29T10:19:45.527Z,0.40
2022-07-29T10:23:29.027Z,0.30
2022-07-29T10:27:28.685Z,0.40
2022-07-29T10:31:28.319Z,0.30
2022-07-29T10:35:23.115Z,0.65
2022-07-29T10:43:51.359Z,0.40
2022-07-29T10:47:35.206Z,0.45
2022-07-29T10:51:18.062Z,0.38
2022-07-29T10:55:01.412Z,0.40
2022-07-29T10:58:52.736Z,0.40
2022-07-29T11:02:41.016Z,0.40
2022-07-29T11:06:28.096Z,0.30
2022-07-29T11:10:16.441Z,0.40
2022-07-29T11:13:58.544Z,0.40
2022-07-29T11:17:59.699Z,0.30
2022-07-29T11:21:53.466Z,0.35
2022-07-29T11:25:51.071Z,0.40
2022-07-29T11:29:41.284Z,0.40
2022-07-29T11:33:54.292Z,0.38
2022-07-29T11:37:35.085Z,0.40
2022-07-29T11:41:30.462Z,0.38
2022-07-29T11:45:42.592Z,0.63
2022-07-29T11:49:32.506Z,0.40
2022-07-29T11:57:18.395Z,0.20
2022-07-29T12:01:04.302Z,0.30
2022-07-29T12:04:55.201Z,0.40
2022-07-29T12:08:43.735Z,0.30
2022-07-29T12:12:26.409Z,0.30
2022-07-29T12:16:08.610Z,0.40
2022-07-29T12:19:50.947Z,0.30
2022-07-29T12:23:34.416Z,0.63
2022-07-29T12:27:19.226Z,0.40
2022-07-29T12:31:43.847Z,0.20
2022-07-29T12:35:22.175Z,0.20
2022-07-29T12:39:05.483Z,0.35
2022-07-29T12:43:13.811Z,0.40
2022-07-29T12:47:05.273Z,0.30
2022-07-29T12:51:01.265Z,0.30
2022-07-29T12:54:48.581Z,0.30
2022-07-29T12:58:34.990Z,0.40
2022-07-29T13:02:23.607Z,0.20
2022-07-29T13:06:05.639Z,0.32
2022-07-29T13:09:47.806Z,0.38
2022-07-29T13:13:29.804Z,0.30
2022-07-29T13:17:24.068Z,0.40
2022-07-29T13:21:13.888Z,0.30
2022-07-29T13:24:58.061Z,0.30
2022-07-29T13:28:40.952Z,0.30
2022-07-29T13:32:28.807Z,0.30
2022-07-29T13:39:53.534Z,0.20
2022-07-29T13:43:35.667Z,0.40
2022-07-29T13:47:18.010Z,0.40
2022-07-29T13:51:00.342Z,0.30
2022-07-29T13:54:42.849Z,0.30
2022-07-29T13:58:24.950Z,0.22
2022-07-29T14:02:07.101Z,0.35
2022-07-29T14:05:49.155Z,0.30
2022-07-29T14:09:40.915Z,0.40
2022-07-29T14:13:25.391Z,0.40
2022-07-29T14:17:08.413Z,0.22
2022-07-29T14:20:50.657Z,0.25
2022-07-29T14:24:32.785Z,0.30
2022-07-29T14:28:18.983Z,0.30
2022-07-29T14:32:01.422Z,0.20
2022-07-29T14:35:44.681Z,0.28
2022-07-29T14:39:26.643Z,0.30
2022-07-29T14:43:14.874Z,0.35
2022-07-29T14:46:56.910Z,0.32
2022-07-29T14:50:39.253Z,0.40
2022-07-29T14:54:21.307Z,0.38
2022-07-29T14:58:09.898Z,0.40
2022-07-29T15:01:53.278Z,0.30
2022-07-29T15:05:36.001Z,0.32
2022-07-29T15:09:17.987Z,0.30
2022-07-29T15:12:59.980Z,0.30
2022-07-29T15:16:44.060Z,0.40
2022-07-29T15:20:30.183Z,0.30
2022-07-29T15:24:12.315Z,0.20
2022-07-29T15:27:57.770Z,0.40
2022-07-29T15:31:43.225Z,0.30
2022-07-29T15:35:25.521Z,0.30
2022-07-29T15:39:07.583Z,0.38
2022-07-29T15:42:49.743Z,0.30
2022-07-29T15:46:50.150Z,0.50
2022-07-29T15:50:32.069Z,0.22
2022-07-29T15:54:14.149Z,0.22
2022-07-29T15:58:00.295Z,0.30
2022-07-29T16:01:42.698Z,0.65
2022-07-29T16:05:25.067Z,0.40
2022-07-29T16:09:07.258Z,0.50
2022-07-29T16:12:49.151Z,0.50
2022-07-29T16:16:31.375Z,0.45
2022-07-29T16:20:13.871Z,0.35
2022-07-29T16:23:56.066Z,0.60
2022-07-29T16:27:38.416Z,0.40
2022-07-29T16:31:23.027Z,0.50
2022-07-29T16:35:05.732Z,0.52
2022-07-29T16:38:48.159Z,0.80
2022-07-29T16:42:46.115Z,0.40
2022-07-29T16:46:28.388Z,0.60
2022-07-29T16:50:10.376Z,0.60
2022-07-29T16:53:52.330Z,0.88
2022-07-29T16:57:34.361Z,0.70
2022-07-29T17:01:17.222Z,0.45
2022-07-29T17:04:59.292Z,0.60
2022-07-29T17:08:44.572Z,0.50
2022-07-29T17:12:27.573Z,0.47
2022-07-29T17:16:09.559Z,0.50
2022-07-29T17:19:51.484Z,0.60
2022-07-29T17:23:33.440Z,0.70
2022-07-29T17:27:15.876Z,0.73
2022-07-29T17:30:58.012Z,0.60
2022-07-29T17:34:41.731Z,0.80
2022-07-29T17:38:23.700Z,0.50
2022-07-29T17:42:06.492Z,0.77
2022-07-29T17:45:48.748Z,0.70
2022-07-29T17:49:31.385Z,0.50
2022-07-29T17:53:15.978Z,0.70
2022-07-29T17:56:58.577Z,0.45
2022-07-29T18:00:42.309Z,0.60
2022-07-29T18:04:25.062Z,0.55
2022-07-29T18:08:07.251Z,0.50
2022-07-29T18:11:49.232Z,0.65
2022-07-29T18:15:31.562Z,0.80
2022-07-29T18:19:13.586Z,0.60
2022-07-29T18:22:55.555Z,0.80
2022-07-29T18:26:38.410Z,0.60
2022-07-29T18:30:20.616Z,0.57
2022-07-29T18:34:02.532Z,0.82
2022-07-29T18:38:01.010Z,0.40
2022-07-29T18:41:49.860Z,0.32
2022-07-29T18:45:32.806Z,0.50
2022-07-29T18:49:15.006Z,0.43
2022-07-29T18:52:58.931Z,0.55
2022-07-29T18:56:41.223Z,0.60
2022-07-29T19:00:24.034Z,0.47
2022-07-29T19:04:06.087Z,0.50
2022-07-29T19:07:48.060Z,0.73
2022-07-29T19:11:30.078Z,0.50
2022-07-29T19:15:12.126Z,0.60
2022-07-29T19:18:54.235Z,0.60
2022-07-29T19:22:38.152Z,0.40
2022-07-29T19:26:20.927Z,0.52
2022-07-29T19:30:05.248Z,0.50
2022-07-29T19:33:47.169Z,0.60
2022-07-29T19:37:29.178Z,0.52
2022-07-29T19:41:13.017Z,0.50
2022-07-29T19:44:55.045Z,0.70
2022-07-29T19:48:37.099Z,0.70
2022-07-29T19:52:19.253Z,0.60
2022-07-29T19:56:01.257Z,0.70
2022-07-29T19:59:44.251Z,0.85
2022-07-29T20:03:26.260Z,0.80
2022-07-29T20:07:08.307Z,1.10
2022-07-29T20:10:50.233Z,0.70
2022-07-29T20:14:32.163Z,0.75
2022-07-29T20:18:15.781Z,0.88
2022-07-29T20:21:57.778Z,0.80
2022-07-29T20:25:39.826Z,1.00
2022-07-29T20:29:22.305Z,0.90
2022-07-29T20:33:04.330Z,0.98
2022-07-29T20:36:46.462Z,0.98
2022-07-29T20:40:29.363Z,0.60
2022-07-29T20:44:11.274Z,0.68
2022-07-29T20:47:53.511Z,0.70
2022-07-29T20:51:43.427Z,0.88
2022-07-29T20:55:25.966Z,0.80
2022-07-29T20:59:09.050Z,0.80
2022-07-29T21:02:51.694Z,0.80
2022-07-29T21:06:34.734Z,0.77
2022-07-29T21:10:18.381Z,0.93
2022-07-29T21:14:01.561Z,0.80
2022-07-29T21:17:47.143Z,1.00
2022-07-29T21:21:29.256Z,1.00
2022-07-29T21:25:12.202Z,0.93
2022-07-29T21:28:54.150Z,1.25
2022-07-29T21:32:36.139Z,0.88
2022-07-29T21:40:20.427Z,1.10
2022-07-29T21:44:02.396Z,1.15
2022-07-29T21:47:44.344Z,1.27
2022-07-29T21:51:26.294Z,1.10
2022-07-29T21:55:10.579Z,1.20
2022-07-29T21:58:53.602Z,1.05
2022-07-29T22:02:35.514Z,1.17
2022-07-29T22:06:17.836Z,1.00
2022-07-29T22:10:00.225Z,0.80
2022-07-29T22:13:42.176Z,0.80
2022-07-29T22:17:26.654Z,1.10
2022-07-29T22:21:08.617Z,0.93
2022-07-29T22:24:50.931Z,1.10
2022-07-29T22:28:33.001Z,0.80
2022-07-29T22:32:14.931Z,1.05
2022-07-29T22:35:56.883Z,1.00
2022-07-29T22:39:39.042Z,1.17
2022-07-29T22:43:20.992Z,1.00
2022-07-29T22:47:04.799Z,1.20
2022-07-29T22:50:46.806Z,1.00
2022-07-29T22:54:28.754Z,1.30
2022-07-29T22:58:10.959Z,1.10
2022-07-29T23:01:52.920Z,1.27
2022-07-29T23:05:34.954Z,0.90
2022-07-29T23:09:17.059Z,0.93
2022-07-29T23:12:59.027Z,1.00
2022-07-29T23:16:41.085Z,0.90
2022-07-29T23:20:23.154Z,0.93
2022-07-29T23:24:05.133Z,0.70
2022-07-29T23:27:47.134Z,0.70
2022-07-29T23:31:29.050Z,0.63
2022-07-29T23:35:11.208Z,0.93
2022-07-29T23:38:55.255Z,0.90
2022-07-29T23:42:37.218Z,0.90
2022-07-29T23:46:19.198Z,0.70
2022-07-29T23:50:07.637Z,0.68
2022-07-29T23:53:53.328Z,0.52
2022-07-29T23:57:36.138Z,0.77
